Pleasantville, Tennessee
Current Conditions -  °F | °C
As of 5:15 AM on Saturday 25 Oct 2014 (Local Time) from KPVE Reporting Station
Overcast Overcast  
Wind Chill: 45°   Ceiling: 4700
Heat Index: 45°   Visibility: 5mi
Dew Point: 45°   Wind: 0mph
Humidity: 100%   Direction: NA
Pressure: 30.08"   Gusts: NA
Location:  35.67°N, 87.7°W
Report Text: KPVE 251015Z AUTO 00000KT 5SM OVC047 07/07 A3008 RMK
Loading
Personal Weather Stations






























Interactive Weather Map
Tropical Storm Tracking
New forecast layout! Learn more

10-Day Weather Forecast

Advertisements
Track Severe Weather on mobile